ETH3173 LIRF-LEMD
Flight info
| Callsign | ETH3173 |
|---|---|
| Flight time | 2h 10m |
| Altitude | 35000 |
| Route | ESINO DCT ABIDU DCT GOKMI DCT SUPUX DCT KUPIM DCT SUXER DCT RIPAL DCT MORSS M603 CDP N733 VLC/N0371F130 N733 PRADO |
| Aircraft | B77L/H-SDE1E2E3FGHIJ2J3J4J5M1RWXY/LB1D1 |
Departure
| Time | 2026-05-04 10:56 |
|---|---|
| Airport | Rome–Fiumicino Leonardo da Vinci International Airport (LIRF) |
Arrival
| Time | 2026-05-04 13:06 |
|---|---|
| Airport | Adolfo Suárez Madrid–Barajas Airport (LEMD) |
| Time | Latitude | Longitude | Altitude | Speed | Heading |
|---|---|---|---|---|---|
| 2026-05-04 10:12 | 41.78793 | 12.24256 | 18 ft | 0 kts | 342° |
| 2026-05-04 10:39 | 41.78770 | 12.24267 | 18 ft | 4 kts | 335° |
| 2026-05-04 10:39 | 41.78747 | 12.24284 | 18 ft | 4 kts | 324° |
| 2026-05-04 10:39 | 41.78727 | 12.24308 | 18 ft | 4 kts | 298° |
| 2026-05-04 10:40 | 41.78723 | 12.24333 | 18 ft | 1 kts | 252° |
| 2026-05-04 10:44 | 41.78751 | 12.24139 | 20 ft | 6 kts | 339° |
| 2026-05-04 10:45 | 41.78802 | 12.24117 | 21 ft | 10 kts | 343° |
| 2026-05-04 10:45 | 41.78878 | 12.24086 | 20 ft | 13 kts | 342° |
| 2026-05-04 10:45 | 41.78970 | 12.24047 | 21 ft | 15 kts | 342° |
| 2026-05-04 10:45 | 41.79073 | 12.24004 | 20 ft | 17 kts | 343° |
| 2026-05-04 10:46 | 41.79187 | 12.23956 | 21 ft | 18 kts | 342° |
| 2026-05-04 10:46 | 41.79314 | 12.23903 | 21 ft | 20 kts | 342° |
| 2026-05-04 10:46 | 41.79455 | 12.23844 | 19 ft | 22 kts | 342° |
| 2026-05-04 10:46 | 41.79598 | 12.23784 | 21 ft | 18 kts | 342° |
| 2026-05-04 10:47 | 41.79718 | 12.23734 | 19 ft | 18 kts | 342° |
| 2026-05-04 10:47 | 41.79810 | 12.23695 | 19 ft | 11 kts | 342° |
| 2026-05-04 10:47 | 41.79866 | 12.23671 | 19 ft | 5 kts | 343° |
| 2026-05-04 10:47 | 41.79897 | 12.23697 | 20 ft | 7 kts | 56° |
| 2026-05-04 10:49 | 41.80098 | 12.24478 | 18 ft | 18 kts | 70° |
| 2026-05-04 10:49 | 41.80144 | 12.24643 | 18 ft | 19 kts | 69° |
| 2026-05-04 10:50 | 41.80189 | 12.24805 | 18 ft | 18 kts | 70° |
| 2026-05-04 10:51 | 41.80443 | 12.25931 | 19 ft | 21 kts | 70° |
| 2026-05-04 10:52 | 41.80490 | 12.26103 | 20 ft | 19 kts | 70° |
| 2026-05-04 10:52 | 41.80537 | 12.26273 | 22 ft | 19 kts | 69° |
| 2026-05-04 10:52 | 41.80584 | 12.26441 | 21 ft | 20 kts | 70° |
| 2026-05-04 10:54 | 41.80865 | 12.27014 | 18 ft | 10 kts | 339° |
| 2026-05-04 10:54 | 41.80931 | 12.26980 | 18 ft | 9 kts | 339° |
| 2026-05-04 10:56 | 41.79903 | 12.22955 | 428 ft | 188 kts | 250° |
| 2026-05-04 10:56 | 41.79484 | 12.21266 | 1075 ft | 188 kts | 248° |
| 2026-05-04 10:56 | 41.79210 | 12.19569 | 1759 ft | 189 kts | 263° |
| 2026-05-04 10:57 | 41.79162 | 12.17740 | 2300 ft | 202 kts | 265° |
| 2026-05-04 10:57 | 41.79145 | 12.15828 | 2812 ft | 207 kts | 262° |
| 2026-05-04 10:57 | 41.78649 | 12.14074 | 3069 ft | 202 kts | 221° |
| 2026-05-04 10:57 | 41.77572 | 12.12901 | 3072 ft | 200 kts | 216° |
| 2026-05-04 10:58 | 41.76489 | 12.11684 | 3059 ft | 205 kts | 219° |
| 2026-05-04 10:58 | 41.75432 | 12.10425 | 3052 ft | 202 kts | 219° |
| 2026-05-04 10:58 | 41.74402 | 12.09174 | 3027 ft | 198 kts | 219° |
| 2026-05-04 10:58 | 41.73380 | 12.07921 | 3045 ft | 201 kts | 220° |
| 2026-05-04 10:59 | 41.72343 | 12.06643 | 3060 ft | 204 kts | 220° |
| 2026-05-04 10:59 | 41.71301 | 12.05355 | 3027 ft | 202 kts | 220° |
| 2026-05-04 10:59 | 41.70132 | 12.04449 | 2997 ft | 192 kts | 185° |
| 2026-05-04 10:59 | 41.68779 | 12.04440 | 3080 ft | 201 kts | 179° |
| 2026-05-04 11:00 | 41.67358 | 12.04425 | 3031 ft | 207 kts | 180° |
| 2026-05-04 11:01 | 41.57827 | 11.99866 | 4348 ft | 252 kts | 216° |
| 2026-05-04 11:02 | 41.56438 | 11.98410 | 5177 ft | 256 kts | 216° |
| 2026-05-04 11:02 | 41.55030 | 11.96929 | 5951 ft | 260 kts | 216° |
| 2026-05-04 11:05 | 41.35631 | 11.69010 | 16034 ft | 347 kts | 251° |
| 2026-05-04 11:06 | 41.34809 | 11.65964 | 16806 ft | 352 kts | 251° |
| 2026-05-04 11:06 | 41.33976 | 11.62881 | 17614 ft | 356 kts | 251° |
| 2026-05-04 11:06 | 41.33132 | 11.59765 | 18424 ft | 360 kts | 251° |
| 2026-05-04 11:06 | 41.32278 | 11.56617 | 19098 ft | 364 kts | 251° |
| 2026-05-04 11:08 | 41.25995 | 11.33674 | 23940 ft | 391 kts | 251° |
| 2026-05-04 11:10 | 41.19367 | 11.09714 | 28364 ft | 402 kts | 252° |
| 2026-05-04 11:12 | 41.12429 | 10.84860 | 31907 ft | 418 kts | 252° |
| 2026-05-04 11:12 | 41.11409 | 10.81231 | 32334 ft | 420 kts | 252° |
| 2026-05-04 11:12 | 41.10385 | 10.77592 | 32734 ft | 423 kts | 252° |
| 2026-05-04 11:12 | 41.09355 | 10.73937 | 33108 ft | 425 kts | 252° |
| 2026-05-04 11:13 | 41.08317 | 10.70256 | 33455 ft | 427 kts | 252° |
| 2026-05-04 11:13 | 41.07274 | 10.66563 | 33789 ft | 429 kts | 252° |
| 2026-05-04 11:13 | 41.06228 | 10.62862 | 34185 ft | 428 kts | 253° |
| 2026-05-04 11:13 | 41.05185 | 10.59187 | 34613 ft | 426 kts | 253° |
| 2026-05-04 11:14 | 41.04139 | 10.55503 | 34841 ft | 428 kts | 253° |
| 2026-05-04 11:14 | 41.03088 | 10.51799 | 35021 ft | 432 kts | 253° |
| 2026-05-04 11:16 | 40.95061 | 10.21820 | 35122 ft | 428 kts | 255° |
| 2026-05-04 11:16 | 40.93228 | 10.14328 | 35121 ft | 428 kts | 255° |
| 2026-05-04 11:17 | 40.91381 | 10.06892 | 35116 ft | 428 kts | 255° |
| 2026-05-04 11:19 | 40.83852 | 9.77007 | 35088 ft | 428 kts | 254° |
| 2026-05-04 11:19 | 40.81960 | 9.69557 | 35083 ft | 428 kts | 254° |
| 2026-05-04 11:20 | 40.80068 | 9.62123 | 35074 ft | 427 kts | 254° |
| 2026-05-04 11:20 | 40.78172 | 9.54701 | 35082 ft | 427 kts | 254° |
| 2026-05-04 11:22 | 40.71582 | 9.29085 | 35074 ft | 414 kts | 254° |
| 2026-05-04 11:22 | 40.70654 | 9.25498 | 35091 ft | 413 kts | 254° |
| 2026-05-04 11:23 | 40.68795 | 9.18329 | 35082 ft | 413 kts | 254° |
| 2026-05-04 11:25 | 40.62240 | 8.93210 | 35081 ft | 416 kts | 253° |
| 2026-05-04 11:25 | 40.60361 | 8.86065 | 35084 ft | 416 kts | 253° |
| 2026-05-04 11:27 | 40.51797 | 8.53728 | 35072 ft | 415 kts | 253° |
| 2026-05-04 11:28 | 40.49885 | 8.46567 | 35071 ft | 415 kts | 253° |
| 2026-05-04 11:28 | 40.47974 | 8.39421 | 35054 ft | 414 kts | 253° |
| 2026-05-04 11:29 | 40.46059 | 8.32291 | 35073 ft | 414 kts | 252° |
| 2026-05-04 11:29 | 40.44340 | 8.25084 | 35063 ft | 412 kts | 258° |
| 2026-05-04 11:33 | 40.39220 | 7.74270 | 35060 ft | 412 kts | 260° |
| 2026-05-04 11:33 | 40.38258 | 7.66857 | 35068 ft | 413 kts | 260° |
| 2026-05-04 11:34 | 40.37292 | 7.59436 | 35056 ft | 413 kts | 260° |
| 2026-05-04 11:34 | 40.36326 | 7.52015 | 35060 ft | 413 kts | 259° |
| 2026-05-04 11:35 | 40.35354 | 7.44598 | 35057 ft | 413 kts | 259° |
| 2026-05-04 11:35 | 40.34383 | 7.37226 | 35056 ft | 413 kts | 259° |
| 2026-05-04 11:36 | 40.33403 | 7.29823 | 35051 ft | 412 kts | 259° |
| 2026-05-04 11:36 | 40.32427 | 7.22440 | 35055 ft | 411 kts | 259° |
| 2026-05-04 11:37 | 40.31454 | 7.15057 | 35053 ft | 411 kts | 259° |
| 2026-05-04 11:37 | 40.30475 | 7.07679 | 35049 ft | 411 kts | 259° |
| 2026-05-04 11:38 | 40.29491 | 7.00299 | 35052 ft | 411 kts | 259° |
| 2026-05-04 11:38 | 40.28500 | 6.92911 | 35044 ft | 412 kts | 259° |
| 2026-05-04 11:39 | 40.27505 | 6.85522 | 35050 ft | 412 kts | 259° |
| 2026-05-04 11:41 | 40.23980 | 6.59643 | 35036 ft | 413 kts | 258° |
| 2026-05-04 11:41 | 40.22961 | 6.52243 | 35029 ft | 414 kts | 258° |
| 2026-05-04 11:42 | 40.21934 | 6.44831 | 35053 ft | 414 kts | 258° |
| 2026-05-04 11:42 | 40.20903 | 6.37418 | 35032 ft | 415 kts | 258° |
| 2026-05-04 11:43 | 40.19864 | 6.29984 | 35024 ft | 415 kts | 258° |
| 2026-05-04 11:43 | 40.18822 | 6.22558 | 35021 ft | 415 kts | 258° |
| 2026-05-04 11:44 | 40.17782 | 6.15193 | 35021 ft | 414 kts | 258° |
| 2026-05-04 11:44 | 40.16731 | 6.07787 | 35043 ft | 414 kts | 258° |
| 2026-05-04 11:45 | 40.15677 | 6.00382 | 35028 ft | 414 kts | 258° |
| 2026-05-04 11:45 | 40.14619 | 5.92985 | 35013 ft | 414 kts | 258° |
| 2026-05-04 11:46 | 40.13554 | 5.85585 | 35013 ft | 414 kts | 258° |
| 2026-05-04 11:46 | 40.12508 | 5.78194 | 35012 ft | 414 kts | 258° |
| 2026-05-04 11:47 | 40.11468 | 5.70811 | 35031 ft | 414 kts | 258° |
| 2026-05-04 11:47 | 40.10423 | 5.63424 | 35014 ft | 413 kts | 257° |
| 2026-05-04 11:48 | 40.09369 | 5.56040 | 35011 ft | 414 kts | 257° |
| 2026-05-04 11:48 | 40.08310 | 5.48659 | 35012 ft | 413 kts | 257° |
| 2026-05-04 11:49 | 40.07249 | 5.41281 | 35011 ft | 413 kts | 257° |
| 2026-05-04 11:49 | 40.06184 | 5.33908 | 35008 ft | 413 kts | 257° |
| 2026-05-04 11:50 | 40.05111 | 5.26538 | 35023 ft | 413 kts | 257° |
| 2026-05-04 11:50 | 40.04035 | 5.19166 | 35009 ft | 413 kts | 257° |
| 2026-05-04 11:51 | 40.02957 | 5.11816 | 35007 ft | 412 kts | 257° |
| 2026-05-04 11:51 | 40.01883 | 5.04529 | 35003 ft | 412 kts | 257° |
| 2026-05-04 11:52 | 40.00799 | 4.97203 | 35006 ft | 411 kts | 257° |
| 2026-05-04 11:52 | 39.99710 | 4.89887 | 35004 ft | 411 kts | 256° |
| 2026-05-04 11:53 | 39.98620 | 4.82571 | 35004 ft | 411 kts | 256° |
| 2026-05-04 11:53 | 39.97455 | 4.75275 | 35001 ft | 410 kts | 253° |
| 2026-05-04 11:55 | 39.91557 | 4.46507 | 34992 ft | 412 kts | 252° |
| 2026-05-04 11:56 | 39.90064 | 4.39273 | 35001 ft | 413 kts | 252° |
| 2026-05-04 11:56 | 39.88570 | 4.32045 | 34993 ft | 413 kts | 252° |
| 2026-05-04 11:57 | 39.87068 | 4.24811 | 35001 ft | 415 kts | 252° |
| 2026-05-04 11:57 | 39.85559 | 4.17568 | 35005 ft | 415 kts | 252° |
| 2026-05-04 11:58 | 39.84042 | 4.10331 | 34992 ft | 415 kts | 252° |
| 2026-05-04 11:58 | 39.82524 | 4.03103 | 34995 ft | 414 kts | 252° |
| 2026-05-04 11:59 | 39.81003 | 3.95881 | 34992 ft | 414 kts | 252° |
| 2026-05-04 11:59 | 39.79478 | 3.88660 | 34990 ft | 414 kts | 252° |
| 2026-05-04 12:00 | 39.77946 | 3.81434 | 34987 ft | 414 kts | 252° |
| 2026-05-04 12:00 | 39.76410 | 3.74211 | 34992 ft | 415 kts | 252° |
| 2026-05-04 12:01 | 39.74867 | 3.66979 | 34983 ft | 415 kts | 251° |
| 2026-05-04 12:02 | 39.69801 | 3.41604 | 34987 ft | 419 kts | 258° |
| 2026-05-04 12:03 | 39.69409 | 3.34025 | 34972 ft | 422 kts | 263° |
| 2026-05-04 12:03 | 39.69132 | 3.26417 | 34972 ft | 422 kts | 263° |
| 2026-05-04 12:04 | 39.68837 | 3.18816 | 34971 ft | 422 kts | 263° |
| 2026-05-04 12:04 | 39.68532 | 3.11219 | 34985 ft | 421 kts | 263° |
| 2026-05-04 12:05 | 39.68222 | 3.03623 | 34989 ft | 421 kts | 262° |
| 2026-05-04 12:05 | 39.67905 | 2.96019 | 34981 ft | 422 kts | 262° |
| 2026-05-04 12:06 | 39.67585 | 2.88406 | 34975 ft | 422 kts | 262° |
| 2026-05-04 12:06 | 39.67258 | 2.80798 | 34997 ft | 423 kts | 262° |
| 2026-05-04 12:07 | 39.66926 | 2.73178 | 34994 ft | 423 kts | 262° |
| 2026-05-04 12:07 | 39.66591 | 2.65555 | 35021 ft | 423 kts | 262° |
| 2026-05-04 12:08 | 39.66254 | 2.57921 | 35004 ft | 424 kts | 262° |
| 2026-05-04 12:08 | 39.65935 | 2.50285 | 34992 ft | 424 kts | 262° |
| 2026-05-04 12:09 | 39.65603 | 2.42645 | 34971 ft | 424 kts | 262° |
| 2026-05-04 12:09 | 39.65247 | 2.35027 | 34981 ft | 422 kts | 262° |
| 2026-05-04 12:10 | 39.64884 | 2.27434 | 34998 ft | 422 kts | 262° |
| 2026-05-04 12:10 | 39.64520 | 2.19831 | 34975 ft | 422 kts | 262° |
| 2026-05-04 12:11 | 39.64152 | 2.12240 | 34970 ft | 421 kts | 261° |
| 2026-05-04 12:11 | 39.63783 | 2.04660 | 34972 ft | 421 kts | 261° |
| 2026-05-04 12:12 | 39.63405 | 1.97084 | 34963 ft | 421 kts | 261° |
| 2026-05-04 12:12 | 39.63025 | 1.89557 | 34996 ft | 421 kts | 261° |
| 2026-05-04 12:14 | 39.61446 | 1.59156 | 34971 ft | 423 kts | 261° |
| 2026-05-04 12:15 | 39.61037 | 1.51537 | 34983 ft | 423 kts | 261° |
| 2026-05-04 12:15 | 39.60626 | 1.43931 | 34967 ft | 423 kts | 261° |
| 2026-05-04 12:16 | 39.60208 | 1.36330 | 34961 ft | 422 kts | 261° |
| 2026-05-04 12:16 | 39.59786 | 1.28726 | 34962 ft | 422 kts | 261° |
| 2026-05-04 12:17 | 39.59363 | 1.21134 | 34962 ft | 422 kts | 261° |
| 2026-05-04 12:17 | 39.58936 | 1.13552 | 34984 ft | 422 kts | 261° |
| 2026-05-04 12:18 | 39.58502 | 1.05957 | 34967 ft | 422 kts | 261° |
| 2026-05-04 12:18 | 39.58136 | 0.99647 | 34953 ft | 422 kts | 261° |
| 2026-05-04 12:19 | 39.57622 | 0.90834 | 34954 ft | 422 kts | 261° |
| 2026-05-04 12:19 | 39.57176 | 0.83251 | 34956 ft | 422 kts | 261° |
| 2026-05-04 12:20 | 39.56722 | 0.75665 | 34994 ft | 422 kts | 261° |
| 2026-05-04 12:20 | 39.56341 | 0.69355 | 34972 ft | 422 kts | 261° |
| 2026-05-04 12:21 | 39.55880 | 0.61767 | 34958 ft | 423 kts | 261° |
| 2026-05-04 12:21 | 39.55415 | 0.54175 | 34965 ft | 423 kts | 261° |
| 2026-05-04 12:22 | 39.54949 | 0.46587 | 34958 ft | 423 kts | 261° |
| 2026-05-04 12:22 | 39.54474 | 0.38999 | 34952 ft | 422 kts | 261° |
| 2026-05-04 12:23 | 39.54000 | 0.31428 | 34961 ft | 422 kts | 260° |
| 2026-05-04 12:23 | 39.53509 | 0.23864 | 34957 ft | 422 kts | 260° |
| 2026-05-04 12:24 | 39.53014 | 0.16289 | 34951 ft | 422 kts | 260° |
| 2026-05-04 12:24 | 39.52515 | 0.08720 | 34946 ft | 422 kts | 260° |
| 2026-05-04 12:25 | 39.52011 | 0.01149 | 34946 ft | 422 kts | 260° |
| 2026-05-04 12:25 | 39.51502 | -0.06435 | 34954 ft | 423 kts | 260° |
| 2026-05-04 12:26 | 39.50986 | -0.14034 | 34958 ft | 424 kts | 260° |
| 2026-05-04 12:26 | 39.50466 | -0.21655 | 34957 ft | 425 kts | 260° |
| 2026-05-04 12:27 | 39.49938 | -0.29271 | 34963 ft | 425 kts | 260° |
| 2026-05-04 12:27 | 39.49410 | -0.36835 | 34968 ft | 425 kts | 260° |
| 2026-05-04 12:28 | 39.49102 | -0.44477 | 34962 ft | 430 kts | 270° |
| 2026-05-04 12:28 | 39.50451 | -0.52119 | 34969 ft | 442 kts | 283° |
| 2026-05-04 12:29 | 39.53308 | -0.59311 | 34963 ft | 453 kts | 292° |
| 2026-05-04 12:29 | 39.56511 | -0.66336 | 34961 ft | 452 kts | 292° |
| 2026-05-04 12:30 | 39.59664 | -0.73387 | 34967 ft | 452 kts | 292° |
| 2026-05-04 12:30 | 39.62782 | -0.80479 | 34948 ft | 453 kts | 292° |
| 2026-05-04 12:31 | 39.65890 | -0.87581 | 34960 ft | 452 kts | 292° |
| 2026-05-04 12:31 | 39.68989 | -0.94676 | 34956 ft | 451 kts | 292° |
| 2026-05-04 12:32 | 39.73612 | -1.05279 | 34934 ft | 452 kts | 292° |
| 2026-05-04 12:33 | 39.76696 | -1.12386 | 34939 ft | 451 kts | 292° |
| 2026-05-04 12:33 | 39.79763 | -1.19485 | 34942 ft | 449 kts | 292° |
| 2026-05-04 12:33 | 39.81290 | -1.23014 | 34812 ft | 448 kts | 292° |
| 2026-05-04 12:34 | 39.82832 | -1.26549 | 34546 ft | 452 kts | 292° |
| 2026-05-04 12:34 | 39.84399 | -1.30140 | 33911 ft | 463 kts | 292° |
| 2026-05-04 12:34 | 39.85991 | -1.33776 | 33280 ft | 460 kts | 292° |
| 2026-05-04 12:34 | 39.87568 | -1.37374 | 32661 ft | 455 kts | 292° |
| 2026-05-04 12:35 | 39.89121 | -1.40930 | 32098 ft | 449 kts | 292° |
| 2026-05-04 12:35 | 39.90658 | -1.44467 | 31539 ft | 452 kts | 291° |
| 2026-05-04 12:35 | 39.92203 | -1.48062 | 30960 ft | 453 kts | 291° |
| 2026-05-04 12:35 | 39.93712 | -1.51549 | 30404 ft | 432 kts | 291° |
| 2026-05-04 12:36 | 39.95172 | -1.54928 | 29870 ft | 419 kts | 291° |
| 2026-05-04 12:36 | 39.96588 | -1.58219 | 29283 ft | 415 kts | 291° |
| 2026-05-04 12:36 | 39.97990 | -1.61498 | 28708 ft | 412 kts | 291° |
| 2026-05-04 12:36 | 39.99380 | -1.64751 | 28204 ft | 409 kts | 291° |
| 2026-05-04 12:37 | 40.00759 | -1.67980 | 27651 ft | 406 kts | 291° |
| 2026-05-04 12:37 | 40.02126 | -1.71185 | 27158 ft | 404 kts | 291° |
| 2026-05-04 12:37 | 40.03493 | -1.74392 | 26630 ft | 403 kts | 291° |
| 2026-05-04 12:37 | 40.04852 | -1.77579 | 26121 ft | 402 kts | 291° |
| 2026-05-04 12:38 | 40.06212 | -1.80768 | 25610 ft | 402 kts | 291° |
| 2026-05-04 12:38 | 40.07569 | -1.83956 | 25098 ft | 402 kts | 291° |
| 2026-05-04 12:38 | 40.08924 | -1.87146 | 24595 ft | 401 kts | 291° |
| 2026-05-04 12:38 | 40.10268 | -1.90304 | 24056 ft | 390 kts | 291° |
| 2026-05-04 12:39 | 40.11560 | -1.93333 | 23633 ft | 380 kts | 291° |
| 2026-05-04 12:39 | 40.12839 | -1.96357 | 23051 ft | 380 kts | 292° |
| 2026-05-04 12:39 | 40.14117 | -1.99375 | 22563 ft | 379 kts | 292° |
| 2026-05-04 12:39 | 40.15388 | -2.02380 | 22063 ft | 377 kts | 292° |
| 2026-05-04 12:40 | 40.16653 | -2.05374 | 21587 ft | 375 kts | 292° |
| 2026-05-04 12:40 | 40.17909 | -2.08353 | 21129 ft | 373 kts | 292° |
| 2026-05-04 12:40 | 40.19158 | -2.11319 | 20661 ft | 371 kts | 292° |
| 2026-05-04 12:40 | 40.20402 | -2.14275 | 20198 ft | 370 kts | 292° |
| 2026-05-04 12:41 | 40.21641 | -2.17219 | 19729 ft | 369 kts | 293° |
| 2026-05-04 12:41 | 40.22878 | -2.20166 | 19274 ft | 369 kts | 293° |
| 2026-05-04 12:41 | 40.24104 | -2.23084 | 18827 ft | 363 kts | 293° |
| 2026-05-04 12:41 | 40.25319 | -2.25979 | 18378 ft | 363 kts | 293° |
| 2026-05-04 12:42 | 40.26534 | -2.28882 | 17883 ft | 363 kts | 294° |
| 2026-05-04 12:42 | 40.27726 | -2.31730 | 17396 ft | 355 kts | 294° |
| 2026-05-04 12:42 | 40.28917 | -2.34573 | 16983 ft | 350 kts | 294° |
| 2026-05-04 12:42 | 40.30067 | -2.37329 | 16540 ft | 350 kts | 294° |
| 2026-05-04 12:43 | 40.31230 | -2.40119 | 16099 ft | 349 kts | 294° |
| 2026-05-04 12:43 | 40.32398 | -2.42921 | 15646 ft | 349 kts | 294° |
| 2026-05-04 12:43 | 40.33550 | -2.45684 | 15483 ft | 341 kts | 294° |
| 2026-05-04 12:43 | 40.34671 | -2.48374 | 15326 ft | 332 kts | 294° |
| 2026-05-04 12:44 | 40.35766 | -2.51002 | 15186 ft | 324 kts | 294° |
| 2026-05-04 12:44 | 40.36815 | -2.53478 | 15007 ft | 300 kts | 297° |
| 2026-05-04 12:44 | 40.38183 | -2.55534 | 14790 ft | 303 kts | 316° |
| 2026-05-04 12:44 | 40.39897 | -2.57160 | 14527 ft | 304 kts | 320° |
| 2026-05-04 12:45 | 40.41629 | -2.58768 | 14211 ft | 306 kts | 319° |
| 2026-05-04 12:45 | 40.43366 | -2.60393 | 13939 ft | 307 kts | 319° |
| 2026-05-04 12:45 | 40.45099 | -2.62028 | 13632 ft | 306 kts | 319° |
| 2026-05-04 12:45 | 40.46828 | -2.63661 | 13298 ft | 306 kts | 319° |
| 2026-05-04 12:46 | 40.48557 | -2.65301 | 12996 ft | 307 kts | 319° |
| 2026-05-04 12:46 | 40.50282 | -2.66943 | 12670 ft | 305 kts | 319° |
| 2026-05-04 12:46 | 40.51980 | -2.68564 | 12386 ft | 299 kts | 319° |
| 2026-05-04 12:46 | 40.53643 | -2.70155 | 12089 ft | 293 kts | 319° |
| 2026-05-04 12:47 | 40.55282 | -2.71725 | 11776 ft | 289 kts | 319° |
| 2026-05-04 12:47 | 40.56902 | -2.73281 | 11521 ft | 288 kts | 319° |
| 2026-05-04 12:47 | 40.58515 | -2.74832 | 11238 ft | 286 kts | 320° |
| 2026-05-04 12:47 | 40.60121 | -2.76375 | 10980 ft | 284 kts | 319° |
| 2026-05-04 12:48 | 40.61703 | -2.77892 | 10697 ft | 280 kts | 319° |
| 2026-05-04 12:48 | 40.63261 | -2.79386 | 10413 ft | 275 kts | 319° |
| 2026-05-04 12:48 | 40.64790 | -2.80854 | 10143 ft | 269 kts | 319° |
| 2026-05-04 12:48 | 40.66078 | -2.82478 | 9962 ft | 244 kts | 298° |
| 2026-05-04 12:49 | 40.66946 | -2.84391 | 9935 ft | 246 kts | 296° |
| 2026-05-04 12:49 | 40.67825 | -2.86333 | 9858 ft | 246 kts | 296° |
| 2026-05-04 12:49 | 40.68702 | -2.88250 | 9756 ft | 243 kts | 296° |
| 2026-05-04 12:49 | 40.69558 | -2.90143 | 9680 ft | 239 kts | 297° |
| 2026-05-04 12:50 | 40.70417 | -2.91999 | 9634 ft | 236 kts | 297° |
| 2026-05-04 12:50 | 40.71273 | -2.93865 | 9584 ft | 239 kts | 296° |
| 2026-05-04 12:50 | 40.72132 | -2.95735 | 9512 ft | 240 kts | 297° |
| 2026-05-04 12:50 | 40.73002 | -2.97625 | 9440 ft | 241 kts | 297° |
| 2026-05-04 12:51 | 40.73866 | -2.99504 | 9378 ft | 238 kts | 296° |
| 2026-05-04 12:51 | 40.74717 | -3.01356 | 9299 ft | 235 kts | 296° |
| 2026-05-04 12:51 | 40.75560 | -3.03192 | 9224 ft | 234 kts | 296° |
| 2026-05-04 12:51 | 40.76390 | -3.04997 | 9162 ft | 232 kts | 296° |
| 2026-05-04 12:52 | 40.77225 | -3.06823 | 9130 ft | 233 kts | 297° |
| 2026-05-04 12:52 | 40.78068 | -3.08659 | 9052 ft | 235 kts | 297° |
| 2026-05-04 12:52 | 40.78919 | -3.10512 | 8975 ft | 237 kts | 297° |
| 2026-05-04 12:52 | 40.79783 | -3.12406 | 8920 ft | 237 kts | 297° |
| 2026-05-04 12:53 | 40.80625 | -3.14246 | 8857 ft | 238 kts | 297° |
| 2026-05-04 12:53 | 40.81483 | -3.16114 | 8782 ft | 238 kts | 297° |
| 2026-05-04 12:53 | 40.82337 | -3.17984 | 8715 ft | 238 kts | 297° |
| 2026-05-04 12:53 | 40.83192 | -3.19849 | 8655 ft | 237 kts | 297° |
| 2026-05-04 12:54 | 40.84041 | -3.21709 | 8588 ft | 236 kts | 297° |
| 2026-05-04 12:54 | 40.84888 | -3.23566 | 8528 ft | 236 kts | 297° |
| 2026-05-04 12:54 | 40.85730 | -3.25413 | 8462 ft | 232 kts | 297° |
| 2026-05-04 12:54 | 40.86558 | -3.27213 | 8386 ft | 227 kts | 298° |
| 2026-05-04 12:55 | 40.87369 | -3.28996 | 8332 ft | 225 kts | 298° |
| 2026-05-04 12:55 | 40.88177 | -3.30767 | 8272 ft | 225 kts | 298° |
| 2026-05-04 12:55 | 40.88984 | -3.32538 | 8209 ft | 225 kts | 297° |
| 2026-05-04 12:55 | 40.89792 | -3.34309 | 8142 ft | 224 kts | 298° |
| 2026-05-04 12:56 | 40.90596 | -3.36068 | 8084 ft | 223 kts | 297° |
| 2026-05-04 12:56 | 40.91374 | -3.37834 | 8023 ft | 219 kts | 290° |
| 2026-05-04 12:56 | 40.91800 | -3.39765 | 7987 ft | 220 kts | 280° |
| 2026-05-04 12:56 | 40.92101 | -3.41775 | 7928 ft | 223 kts | 279° |
| 2026-05-04 12:57 | 40.92402 | -3.43788 | 7857 ft | 222 kts | 279° |
| 2026-05-04 12:57 | 40.92483 | -3.45791 | 7758 ft | 217 kts | 260° |
| 2026-05-04 12:57 | 40.92195 | -3.47769 | 7750 ft | 220 kts | 260° |
| 2026-05-04 12:57 | 40.91938 | -3.49730 | 7705 ft | 212 kts | 260° |
| 2026-05-04 12:58 | 40.91437 | -3.51502 | 7617 ft | 206 kts | 232° |
| 2026-05-04 12:58 | 40.90343 | -3.52717 | 7580 ft | 208 kts | 218° |
| 2026-05-04 12:58 | 40.89115 | -3.53732 | 7512 ft | 208 kts | 214° |
| 2026-05-04 12:58 | 40.87858 | -3.54744 | 7457 ft | 212 kts | 213° |
| 2026-05-04 12:59 | 40.86614 | -3.55745 | 7391 ft | 207 kts | 215° |
| 2026-05-04 12:59 | 40.85394 | -3.56730 | 7341 ft | 204 kts | 213° |
| 2026-05-04 12:59 | 40.84092 | -3.57442 | 7244 ft | 207 kts | 192° |
| 2026-05-04 12:59 | 40.82643 | -3.57597 | 7223 ft | 212 kts | 187° |
| 2026-05-04 13:00 | 40.81160 | -3.57667 | 7154 ft | 214 kts | 184° |
| 2026-05-04 13:00 | 40.79672 | -3.57680 | 7074 ft | 212 kts | 183° |
| 2026-05-04 13:00 | 40.78238 | -3.57679 | 7013 ft | 207 kts | 184° |
| 2026-05-04 13:00 | 40.76788 | -3.57673 | 6800 ft | 207 kts | 184° |
| 2026-05-04 13:01 | 40.75375 | -3.57657 | 6535 ft | 200 kts | 184° |
| 2026-05-04 13:01 | 40.74020 | -3.57644 | 6255 ft | 190 kts | 184° |
| 2026-05-04 13:01 | 40.72715 | -3.57638 | 6025 ft | 189 kts | 184° |
| 2026-05-04 13:01 | 40.71403 | -3.57629 | 5754 ft | 188 kts | 183° |
| 2026-05-04 13:02 | 40.70098 | -3.57612 | 5531 ft | 188 kts | 185° |
| 2026-05-04 13:02 | 40.68800 | -3.57603 | 5275 ft | 185 kts | 185° |
| 2026-05-04 13:02 | 40.67515 | -3.57594 | 5004 ft | 185 kts | 183° |
| 2026-05-04 13:02 | 40.66248 | -3.57588 | 4772 ft | 179 kts | 185° |
| 2026-05-04 13:03 | 40.65014 | -3.57579 | 4550 ft | 176 kts | 183° |
| 2026-05-04 13:03 | 40.63801 | -3.57570 | 4288 ft | 171 kts | 183° |
| 2026-05-04 13:03 | 40.62655 | -3.57553 | 4089 ft | 159 kts | 183° |
| 2026-05-04 13:03 | 40.61548 | -3.57546 | 3863 ft | 158 kts | 183° |
| 2026-05-04 13:04 | 40.60472 | -3.57539 | 3652 ft | 153 kts | 183° |
| 2026-05-04 13:04 | 40.59396 | -3.57530 | 3457 ft | 155 kts | 185° |
| 2026-05-04 13:04 | 40.58321 | -3.57524 | 3230 ft | 153 kts | 184° |
| 2026-05-04 13:04 | 40.57253 | -3.57495 | 3042 ft | 154 kts | 183° |
| 2026-05-04 13:05 | 40.56189 | -3.57458 | 2789 ft | 150 kts | 186° |
| 2026-05-04 13:05 | 40.55159 | -3.57473 | 2584 ft | 148 kts | 184° |
| 2026-05-04 13:05 | 40.54131 | -3.57454 | 2416 ft | 146 kts | 186° |
| 2026-05-04 13:05 | 40.53124 | -3.57475 | 2204 ft | 146 kts | 184° |
| 2026-05-04 13:06 | 40.52121 | -3.57468 | 2042 ft | 143 kts | 184° |
| 2026-05-04 13:06 | 40.51193 | -3.57469 | 1999 ft | 117 kts | 179° |
| 2026-05-04 13:06 | 40.50735 | -3.57465 | 2000 ft | 82 kts | 180° |
| 2026-05-04 13:06 | 40.50335 | -3.57460 | 1995 ft | 44 kts | 180° |
| 2026-05-04 13:07 | 40.50135 | -3.57459 | 1992 ft | 20 kts | 179° |
| 2026-05-04 13:07 | 40.49983 | -3.57420 | 1993 ft | 19 kts | 152° |
| 2026-05-04 13:07 | 40.49898 | -3.57354 | 1994 ft | 10 kts | 149° |
| 2026-05-04 13:07 | 40.49834 | -3.57307 | 1995 ft | 7 kts | 150° |
| 2026-05-04 13:08 | 40.49804 | -3.57284 | 1995 ft | 8 kts | 150° |
| 2026-05-04 13:08 | 40.49721 | -3.57229 | 1990 ft | 12 kts | 164° |
| 2026-05-04 13:08 | 40.49659 | -3.57229 | 1988 ft | 14 kts | 185° |
| 2026-05-04 13:08 | 40.49556 | -3.57233 | 1989 ft | 15 kts | 179° |
| 2026-05-04 13:09 | 40.49452 | -3.57232 | 1986 ft | 15 kts | 180° |
| 2026-05-04 13:09 | 40.49343 | -3.57231 | 1984 ft | 16 kts | 179° |
| 2026-05-04 13:09 | 40.49234 | -3.57230 | 1989 ft | 15 kts | 179° |
| 2026-05-04 13:09 | 40.49152 | -3.57229 | 1990 ft | 10 kts | 180° |
| 2026-05-04 13:10 | 40.49085 | -3.57229 | 1988 ft | 10 kts | 180° |
| 2026-05-04 13:10 | 40.49014 | -3.57229 | 1988 ft | 10 kts | 179° |
| 2026-05-04 13:10 | 40.48940 | -3.57228 | 1988 ft | 11 kts | 180° |
| 2026-05-04 13:10 | 40.48866 | -3.57227 | 1990 ft | 11 kts | 179° |
| 2026-05-04 13:11 | 40.48794 | -3.57227 | 1988 ft | 8 kts | 180° |
| 2026-05-04 13:11 | 40.48767 | -3.57285 | 1992 ft | 8 kts | 264° |
| 2026-05-04 13:11 | 40.48765 | -3.57364 | 1991 ft | 9 kts | 269° |
| 2026-05-04 13:11 | 40.48764 | -3.57460 | 1993 ft | 12 kts | 270° |
| 2026-05-04 13:12 | 40.48764 | -3.57575 | 1995 ft | 14 kts | 269° |
| 2026-05-04 13:12 | 40.48763 | -3.57713 | 1997 ft | 15 kts | 270° |
| 2026-05-04 13:12 | 40.48762 | -3.57832 | 2000 ft | 9 kts | 270° |
| 2026-05-04 13:12 | 40.48761 | -3.57897 | 2002 ft | 4 kts | 260° |
| 2026-05-04 13:13 | 40.48752 | -3.57914 | 2003 ft | 3 kts | 225° |
| 2026-05-04 13:13 | 40.48693 | -3.57927 | 2003 ft | 14 kts | 180° |
| 2026-05-04 13:13 | 40.48577 | -3.57906 | 2001 ft | 20 kts | 156° |
| 2026-05-04 13:13 | 40.48444 | -3.57812 | 1997 ft | 19 kts | 150° |
| 2026-05-04 13:14 | 40.48334 | -3.57713 | 1999 ft | 19 kts | 143° |
| 2026-05-04 13:14 | 40.48228 | -3.57606 | 2000 ft | 19 kts | 142° |
| 2026-05-04 13:14 | 40.48135 | -3.57512 | 2002 ft | 15 kts | 142° |
| 2026-05-04 13:14 | 40.48054 | -3.57429 | 2004 ft | 15 kts | 142° |
| 2026-05-04 13:15 | 40.47975 | -3.57348 | 2004 ft | 14 kts | 142° |
| 2026-05-04 13:15 | 40.47896 | -3.57267 | 2005 ft | 15 kts | 142° |
| 2026-05-04 13:15 | 40.47809 | -3.57180 | 2003 ft | 16 kts | 142° |
| 2026-05-04 13:15 | 40.47717 | -3.57086 | 2001 ft | 17 kts | 142° |
| 2026-05-04 13:16 | 40.47619 | -3.56987 | 1999 ft | 18 kts | 142° |
| 2026-05-04 13:16 | 40.47517 | -3.56883 | 1997 ft | 19 kts | 142° |
| 2026-05-04 13:16 | 40.47414 | -3.56779 | 1993 ft | 19 kts | 142° |
| 2026-05-04 13:16 | 40.47310 | -3.56672 | 1993 ft | 19 kts | 142° |
| 2026-05-04 13:17 | 40.47208 | -3.56568 | 1989 ft | 18 kts | 142° |
| 2026-05-04 13:17 | 40.47102 | -3.56480 | 1985 ft | 18 kts | 159° |
| 2026-05-04 13:17 | 40.46979 | -3.56449 | 1984 ft | 18 kts | 179° |
| 2026-05-04 13:17 | 40.46857 | -3.56460 | 1980 ft | 16 kts | 183° |
| 2026-05-04 13:18 | 40.46755 | -3.56468 | 1978 ft | 13 kts | 183° |
| 2026-05-04 13:18 | 40.46663 | -3.56475 | 1982 ft | 13 kts | 184° |
| 2026-05-04 13:18 | 40.46572 | -3.56482 | 1979 ft | 13 kts | 183° |
| 2026-05-04 13:18 | 40.46481 | -3.56489 | 1977 ft | 13 kts | 184° |
| 2026-05-04 13:19 | 40.46390 | -3.56496 | 1981 ft | 13 kts | 183° |
| 2026-05-04 13:19 | 40.46298 | -3.56503 | 1980 ft | 13 kts | 183° |
| 2026-05-04 13:19 | 40.46208 | -3.56510 | 1978 ft | 13 kts | 183° |
| 2026-05-04 13:19 | 40.46118 | -3.56517 | 1975 ft | 13 kts | 183° |
| 2026-05-04 13:20 | 40.46039 | -3.56523 | 1975 ft | 9 kts | 184° |
| 2026-05-04 13:20 | 40.45983 | -3.56527 | 1980 ft | 7 kts | 179° |
| 2026-05-04 13:20 | 40.45959 | -3.56478 | 1978 ft | 8 kts | 96° |
| 2026-05-04 13:20 | 40.45958 | -3.56400 | 1972 ft | 9 kts | 90° |
| 2026-05-04 13:21 | 40.45959 | -3.56308 | 1972 ft | 11 kts | 89° |
| 2026-05-04 13:21 | 40.45964 | -3.56237 | 1967 ft | 5 kts | 62° |
| 2026-05-04 13:21 | 40.45997 | -3.56221 | 1967 ft | 5 kts | 6° |
| 2026-05-04 13:21 | 40.46027 | -3.56220 | 1967 ft | 3 kts | 360° |
| 2026-05-04 13:22 | 40.46034 | -3.56220 | 1967 ft | 0 kts | 0° |